Time;durP1;ratioP1;P1;durP2;ratioP2;P2;SDS_P1;SDS_P2;PMS_P1;PMS_P2;Temp;Humidity;BMP_temperature;BMP_pressure;BME280_temperature;BME280_humidity;BME280_pressure;Samples;Min_cycle;Max_cycle;Signal;HPM_P1;HPM_P2
2023/05/18 00:01:18;;;;;;;;;;;18.30;61.80;;;;;;5036351;28;1958;-72
2023/05/18 00:03:43;;;;;;;;;;;18.30;61.80;;;;;;5040125;28;883;-72
2023/05/18 00:06:09;;;;;;;;;;;18.30;61.80;;;;;;5038644;28;841;-72
2023/05/18 00:08:34;;;;;;;;;;;18.30;61.90;;;;;;5032020;28;1419;-72
2023/05/18 00:11:03;;;;;;;;;;;18.30;61.90;;;;;;5026313;28;1202;-71
2023/05/18 00:13:29;;;;;;;;;;;18.30;61.90;;;;;;5041338;28;992;-72
2023/05/18 00:15:55;;;;;;;;;;;18.30;62.00;;;;;;5042412;28;833;-72
2023/05/18 00:18:22;;;;;;;;;;;18.30;62.00;;;;;;5043282;28;840;-71
2023/05/18 00:20:57;;;;;;;;;;;18.30;62.70;;;;;;5024413;28;1969;-72
2023/05/18 00:23:28;;;;;;;;;;;18.40;62.10;;;;;;5042249;28;852;-71
2023/05/18 00:25:55;;;;;;;;;;;18.30;62.00;;;;;;5043114;28;857;-72
2023/05/18 00:28:20;;;;;;;;;;;18.30;62.00;;;;;;5042276;28;841;-72
2023/05/18 00:30:46;;;;;;;;;;;18.30;62.10;;;;;;5042171;28;1273;-72
2023/05/18 00:33:11;;;;;;;;;;;18.30;62.00;;;;;;5043503;28;971;-71
2023/05/18 00:35:37;;;;;;;;;;;18.30;62.10;;;;;;5043488;28;818;-72
2023/05/18 00:38:02;;;;;;;;;;;18.30;62.10;;;;;;5041863;28;1235;-72
2023/05/18 00:40:28;;;;;;;;;;;18.30;62.10;;;;;;5041753;28;1959;-72
2023/05/18 00:42:54;;;;;;;;;;;18.30;62.10;;;;;;5041038;28;867;-72
2023/05/18 00:45:19;;;;;;;;;;;18.30;62.10;;;;;;5025147;28;812;-71
2023/05/18 00:47:46;;;;;;;;;;;18.30;62.10;;;;;;5030238;28;1290;-72
2023/05/18 00:50:12;;;;;;;;;;;18.30;62.10;;;;;;5039947;28;1249;-72
2023/05/18 00:52:37;;;;;;;;;;;18.30;62.20;;;;;;5040891;28;901;-72
2023/05/18 00:55:03;;;;;;;;;;;18.30;62.10;;;;;;5042073;28;887;-72
2023/05/18 00:57:28;;;;;;;;;;;18.30;62.20;;;;;;5026173;28;868;-72
2023/05/18 00:59:55;;;;;;;;;;;18.30;62.20;;;;;;5042057;28;851;-72
2023/05/18 01:02:21;;;;;;;;;;;18.30;62.20;;;;;;5042541;28;1902;-72
2023/05/18 01:04:46;;;;;;;;;;;18.30;62.20;;;;;;5038467;28;804;-72
2023/05/18 01:07:15;;;;;;;;;;;18.30;62.20;;;;;;5041471;28;935;-72
2023/05/18 01:09:40;;;;;;;;;;;18.30;62.20;;;;;;5038616;28;867;-72
2023/05/18 01:12:11;;;;;;;;;;;18.30;62.20;;;;;;5024911;28;1299;-72
2023/05/18 01:15:10;;;;;;;;;;;18.30;62.20;;;;;;5026577;28;920;-72
2023/05/18 01:17:59;;;;;;;;;;;18.30;62.20;;;;;;5017375;28;1113;-72
2023/05/18 01:20:25;;;;;;;;;;;18.30;62.30;;;;;;5045273;28;1959;-72
2023/05/18 01:23:10;;;;;;;;;;;18.30;62.30;;;;;;5039837;28;903;-72
2023/05/18 01:25:36;;;;;;;;;;;18.30;62.30;;;;;;5041855;28;864;-72
2023/05/18 01:28:05;;;;;;;;;;;18.30;62.30;;;;;;5044356;28;798;-70
2023/05/18 01:30:35;;;;;;;;;;;18.30;62.30;;;;;;5040051;28;1287;-70
2023/05/18 01:33:05;;;;;;;;;;;18.30;62.30;;;;;;5026473;28;816;-70
2023/05/18 01:35:30;;;;;;;;;;;18.30;62.30;;;;;;5039975;28;1606;-69
2023/05/18 01:37:56;;;;;;;;;;;18.30;62.40;;;;;;5025523;28;1282;-69
2023/05/18 01:40:21;;;;;;;;;;;18.30;62.40;;;;;;5038512;28;1953;-69
2023/05/18 01:42:48;;;;;;;;;;;18.30;62.40;;;;;;5032013;28;855;-70
2023/05/18 01:45:20;;;;;;;;;;;18.30;62.40;;;;;;5025827;28;931;-70
2023/05/18 01:47:45;;;;;;;;;;;18.30;62.40;;;;;;5023621;28;792;-69
2023/05/18 01:50:15;;;;;;;;;;;18.30;62.40;;;;;;5041025;28;1292;-70
2023/05/18 01:52:41;;;;;;;;;;;18.30;62.40;;;;;;5039016;28;1104;-70
2023/05/18 01:55:07;;;;;;;;;;;18.30;62.50;;;;;;5042315;28;800;-70
2023/05/18 01:57:32;;;;;;;;;;;18.30;62.50;;;;;;5042522;28;939;-70
2023/05/18 01:59:58;;;;;;;;;;;18.30;62.50;;;;;;5030966;28;824;-69
2023/05/18 02:02:25;;;;;;;;;;;18.30;62.50;;;;;;5028319;28;1898;-70
2023/05/18 02:04:50;;;;;;;;;;;18.30;62.50;;;;;;5041548;28;911;-70
2023/05/18 02:07:16;;;;;;;;;;;18.30;62.50;;;;;;5039823;28;868;-69
2023/05/18 02:09:43;;;;;;;;;;;18.30;62.50;;;;;;5037655;28;868;-70
2023/05/18 02:12:08;;;;;;;;;;;18.30;62.60;;;;;;5032692;28;1265;-70
2023/05/18 02:14:34;;;;;;;;;;;18.30;62.50;;;;;;5025832;28;880;-70
2023/05/18 02:16:59;;;;;;;;;;;18.30;62.50;;;;;;5039714;28;807;-70
2023/05/18 02:19:25;;;;;;;;;;;18.30;62.60;;;;;;5039385;28;871;-70
2023/05/18 02:21:50;;;;;;;;;;;18.30;62.60;;;;;;5039957;28;1910;-70
2023/05/18 02:24:19;;;;;;;;;;;18.30;62.60;;;;;;5025509;28;891;-70
2023/05/18 02:26:44;;;;;;;;;;;18.30;62.60;;;;;;5022055;28;1303;-69
2023/05/18 02:29:13;;;;;;;;;;;18.30;62.60;;;;;;5043463;28;776;-70
2023/05/18 02:31:38;;;;;;;;;;;18.30;62.60;;;;;;5039064;28;1270;-70
2023/05/18 02:34:04;;;;;;;;;;;18.30;62.60;;;;;;5016231;28;1156;-69
2023/05/18 02:36:38;;;;;;;;;;;18.30;62.60;;;;;;5039034;28;1240;-70
2023/05/18 02:39:04;;;;;;;;;;;18.30;62.70;;;;;;5041728;28;863;-71
2023/05/18 02:41:30;;;;;;;;;;;18.30;62.70;;;;;;5025601;28;1977;-70
2023/05/18 02:43:56;;;;;;;;;;;18.30;62.70;;;;;;5042406;28;891;-70
2023/05/18 02:46:21;;;;;;;;;;;18.30;62.70;;;;;;5032728;28;1188;-70
2023/05/18 02:48:46;;;;;;;;;;;18.30;62.70;;;;;;5025887;28;903;-69
2023/05/18 02:51:12;;;;;;;;;;;18.30;62.70;;;;;;5038828;28;1258;-72
2023/05/18 02:53:38;;;;;;;;;;;18.30;62.70;;;;;;5039175;28;851;-70
2023/05/18 02:56:03;;;;;;;;;;;18.30;62.70;;;;;;5039183;28;955;-72
2023/05/18 02:58:29;;;;;;;;;;;18.30;62.70;;;;;;5039756;28;808;-70
2023/05/18 03:00:55;;;;;;;;;;;18.30;62.70;;;;;;5024181;28;1906;-70
2023/05/18 03:03:22;;;;;;;;;;;18.30;62.70;;;;;;5022004;28;842;-69
2023/05/18 03:05:51;;;;;;;;;;;18.30;62.80;;;;;;5026479;28;985;-70
2023/05/18 03:08:18;;;;;;;;;;;18.30;62.80;;;;;;5038891;28;844;-69
2023/05/18 03:10:44;;;;;;;;;;;18.30;62.80;;;;;;5040808;28;1275;-69
2023/05/18 03:13:09;;;;;;;;;;;18.30;62.80;;;;;;5039309;28;823;-70
2023/05/18 03:15:36;;;;;;;;;;;18.30;62.80;;;;;;5040263;28;840;-70
2023/05/18 03:18:02;;;;;;;;;;;18.30;62.80;;;;;;5025638;28;837;-70
2023/05/18 03:20:30;;;;;;;;;;;18.30;62.80;;;;;;5039057;28;1973;-70
2023/05/18 03:22:56;;;;;;;;;;;18.30;62.80;;;;;;5040549;28;899;-70
2023/05/18 03:25:21;;;;;;;;;;;18.30;62.80;;;;;;5023926;28;896;-70
2023/05/18 03:27:47;;;;;;;;;;;18.30;62.80;;;;;;5027477;28;1243;-70
2023/05/18 03:30:12;;;;;;;;;;;18.30;62.90;;;;;;5031344;28;1351;-70
2023/05/18 03:32:38;;;;;;;;;;;18.30;62.80;;;;;;5038814;28;1010;-70
2023/05/18 03:35:04;;;;;;;;;;;18.30;62.90;;;;;;5038756;28;1437;-69
2023/05/18 03:37:30;;;;;;;;;;;18.30;62.90;;;;;;5039127;28;1233;-70
2023/05/18 03:39:59;;;;;;;;;;;18.30;62.90;;;;;;5039583;28;1005;-71
2023/05/18 03:42:24;;;;;;;;;;;18.30;62.90;;;;;;5014157;28;1890;-71
2023/05/18 03:44:50;;;;;;;;;;;18.30;62.90;;;;;;5037925;28;985;-70
2023/05/18 03:47:16;;;;;;;;;;;18.30;62.90;;;;;;5038502;28;1008;-70
2023/05/18 03:49:41;;;;;;;;;;;18.30;62.90;;;;;;5038802;28;880;-69
2023/05/18 03:52:07;;;;;;;;;;;18.30;62.90;;;;;;5038183;28;1268;-73
2023/05/18 03:54:32;;;;;;;;;;;18.30;63.00;;;;;;5038342;28;926;-70
2023/05/18 03:56:58;;;;;;;;;;;18.30;62.90;;;;;;5038537;28;931;-70
2023/05/18 03:59:23;;;;;;;;;;;18.30;63.00;;;;;;5039059;28;959;-69
2023/05/18 04:01:52;;;;;;;;;;;18.30;63.00;;;;;;5038855;28;1898;-70
2023/05/18 04:04:21;;;;;;;;;;;18.30;63.00;;;;;;5023461;28;917;-70
2023/05/18 04:06:48;;;;;;;;;;;18.30;63.00;;;;;;5022252;28;879;-70
2023/05/18 04:09:16;;;;;;;;;;;18.30;63.00;;;;;;5037052;28;801;-69
2023/05/18 04:11:41;;;;;;;;;;;18.30;63.00;;;;;;5037776;28;1260;-70
2023/05/18 04:14:10;;;;;;;;;;;18.30;63.00;;;;;;5026182;28;883;-70
2023/05/18 04:16:35;;;;;;;;;;;18.30;63.00;;;;;;5023295;28;903;-69
2023/05/18 04:19:02;;;;;;;;;;;18.30;63.00;;;;;;5034248;28;864;-70
2023/05/18 04:21:34;;;;;;;;;;;18.40;63.00;;;;;;5036873;28;1906;-70
2023/05/18 04:24:06;;;;;;;;;;;18.40;62.90;;;;;;5024632;28;840;-70
2023/05/18 04:26:33;;;;;;;;;;;18.40;62.80;;;;;;5034983;28;1494;-66
2023/05/18 04:28:59;;;;;;;;;;;18.40;62.70;;;;;;5024048;28;2170;-66
2023/05/18 04:31:28;;;;;;;;;;;18.40;62.60;;;;;;5039436;28;1306;-66
2023/05/18 04:33:53;;;;;;;;;;;18.50;62.60;;;;;;5037293;28;1099;-66
2023/05/18 04:36:19;;;;;;;;;;;18.50;62.50;;;;;;5036962;28;1347;-66
2023/05/18 04:38:45;;;;;;;;;;;18.50;62.40;;;;;;5037195;28;876;-67
2023/05/18 04:41:10;;;;;;;;;;;18.50;62.40;;;;;;5038425;28;1901;-69
2023/05/18 04:43:36;;;;;;;;;;;18.60;62.30;;;;;;5037412;28;839;-70
2023/05/18 04:46:02;;;;;;;;;;;18.60;62.30;;;;;;5039526;28;839;-73
2023/05/18 04:48:28;;;;;;;;;;;18.60;62.20;;;;;;5040024;28;874;-72
2023/05/18 04:50:54;;;;;;;;;;;18.60;62.20;;;;;;5037538;28;1326;-71
2023/05/18 04:53:20;;;;;;;;;;;18.60;62.20;;;;;;5038591;28;816;-71
2023/05/18 04:55:48;;;;;;;;;;;18.60;62.10;;;;;;5020805;28;1077;-70
2023/05/18 04:58:14;;;;;;;;;;;18.60;62.10;;;;;;5010096;28;1372;-70
2023/05/18 05:00:39;;;;;;;;;;;18.60;62.10;;;;;;5040998;28;1907;-72
2023/05/18 05:03:05;;;;;;;;;;;18.60;62.10;;;;;;5040123;28;1073;-71
2023/05/18 05:05:30;;;;;;;;;;;18.60;62.10;;;;;;5042106;28;844;-69
2023/05/18 05:07:57;;;;;;;;;;;18.60;62.10;;;;;;5041381;28;912;-68
2023/05/18 05:10:23;;;;;;;;;;;18.60;62.10;;;;;;5033924;28;1337;-69
2023/05/18 05:12:49;;;;;;;;;;;18.60;62.10;;;;;;5025390;28;1101;-70
2023/05/18 05:15:15;;;;;;;;;;;18.60;62.10;;;;;;5039543;28;790;-70
2023/05/18 05:17:40;;;;;;;;;;;18.60;62.10;;;;;;5041138;28;834;-70
2023/05/18 05:20:06;;;;;;;;;;;18.60;62.10;;;;;;5041309;28;1359;-70
2023/05/18 05:22:32;;;;;;;;;;;18.60;62.10;;;;;;5041610;28;1894;-69
2023/05/18 05:24:57;;;;;;;;;;;18.60;62.20;;;;;;5042941;28;1144;-70
2023/05/18 05:27:25;;;;;;;;;;;18.60;62.10;;;;;;5041423;28;1568;-69
2023/05/18 05:29:50;;;;;;;;;;;18.60;62.20;;;;;;5046046;28;1346;-70
2023/05/18 05:32:15;;;;;;;;;;;18.60;62.20;;;;;;5043051;28;1232;-69
2023/05/18 05:34:45;;;;;;;;;;;18.60;62.20;;;;;;5040693;28;1031;-69
2023/05/18 05:37:11;;;;;;;;;;;18.60;62.20;;;;;;5040359;28;1202;-71
2023/05/18 05:39:36;;;;;;;;;;;18.60;62.20;;;;;;5040221;28;1721;-70
2023/05/18 05:42:02;;;;;;;;;;;18.60;62.30;;;;;;5025300;28;1965;-70
2023/05/18 05:44:27;;;;;;;;;;;18.60;62.20;;;;;;5041475;28;1007;-70
2023/05/18 05:46:53;;;;;;;;;;;18.60;62.20;;;;;;5036472;28;883;-73
2023/05/18 05:49:18;;;;;;;;;;;18.60;62.30;;;;;;5038522;28;1128;-71
2023/05/18 05:51:44;;;;;;;;;;;18.60;62.30;;;;;;5037601;28;1292;-71
2023/05/18 05:54:09;;;;;;;;;;;18.60;62.30;;;;;;5039748;28;849;-73
2023/05/18 05:56:35;;;;;;;;;;;18.60;62.30;;;;;;5037779;28;897;-73
2023/05/18 05:59:00;;;;;;;;;;;18.60;62.40;;;;;;5040683;28;1046;-72
2023/05/18 06:01:26;;;;;;;;;;;18.60;62.40;;;;;;5040522;28;1965;-70
2023/05/18 06:03:51;;;;;;;;;;;18.60;62.40;;;;;;5041212;28;904;-71
2023/05/18 06:06:17;;;;;;;;;;;18.60;62.40;;;;;;5036430;28;858;-70
2023/05/18 06:08:42;;;;;;;;;;;18.60;62.40;;;;;;5039873;28;832;-70
2023/05/18 06:11:08;;;;;;;;;;;18.60;62.40;;;;;;5038122;28;1388;-70
2023/05/18 06:13:33;;;;;;;;;;;18.60;62.40;;;;;;5021222;28;910;-70
2023/05/18 06:15:59;;;;;;;;;;;18.60;62.40;;;;;;5040302;28;898;-70
2023/05/18 06:18:24;;;;;;;;;;;18.50;62.50;;;;;;5040101;28;844;-70
2023/05/18 06:20:50;;;;;;;;;;;18.60;62.50;;;;;;5038284;28;1906;-69
2023/05/18 06:23:21;;;;;;;;;;;18.60;62.40;;;;;;5039350;28;833;-70
2023/05/18 06:25:47;;;;;;;;;;;18.60;63.90;;;;;;5037618;28;839;-70
2023/05/18 06:28:13;;;;;;;;;;;18.60;60.40;;;;;;5039148;28;889;-69
2023/05/18 06:30:38;;;;;;;;;;;18.60;61.40;;;;;;5037561;28;2242;-68
2023/05/18 06:33:04;;;;;;;;;;;18.60;60.00;;;;;;5025293;28;1403;-68
2023/05/18 06:35:29;;;;;;;;;;;18.60;59.70;;;;;;5038583;28;1591;-69
2023/05/18 06:37:55;;;;;;;;;;;18.60;59.80;;;;;;5039910;28;1303;-68
2023/05/18 06:40:20;;;;;;;;;;;18.60;59.80;;;;;;5040258;28;1437;-68
2023/05/18 06:42:46;;;;;;;;;;;18.50;59.20;;;;;;5037835;28;1980;-68
2023/05/18 06:45:11;;;;;;;;;;;18.50;59.10;;;;;;5038426;28;938;-68
2023/05/18 06:47:37;;;;;;;;;;;18.50;59.20;;;;;;5038970;28;861;-70
2023/05/18 06:50:03;;;;;;;;;;;18.50;58.80;;;;;;5039590;28;1386;-69
2023/05/18 06:52:28;;;;;;;;;;;18.50;58.70;;;;;;5042198;28;837;-69
2023/05/18 06:54:54;;;;;;;;;;;18.50;58.20;;;;;;5042387;28;1478;-69
2023/05/18 06:57:19;;;;;;;;;;;18.50;58.20;;;;;;5039641;28;1443;-69
2023/05/18 06:59:45;;;;;;;;;;;18.50;58.40;;;;;;5039922;28;1268;-69
2023/05/18 07:02:10;;;;;;;;;;;18.50;58.50;;;;;;5041207;28;1965;-69
2023/05/18 07:04:36;;;;;;;;;;;18.50;58.50;;;;;;5022207;28;1315;-69
2023/05/18 07:07:01;;;;;;;;;;;18.50;59.20;;;;;;5036619;28;1436;-69
2023/05/18 07:09:27;;;;;;;;;;;18.50;59.10;;;;;;5011654;28;1433;-69
2023/05/18 07:11:53;;;;;;;;;;;18.60;59.50;;;;;;5027725;28;1326;-69
2023/05/18 07:14:18;;;;;;;;;;;18.60;59.80;;;;;;5022827;28;2024;-69
2023/05/18 07:16:46;;;;;;;;;;;18.60;60.00;;;;;;5033874;28;1946;-70
2023/05/18 07:19:12;;;;;;;;;;;18.70;60.30;;;;;;5023880;28;1446;-69
2023/05/18 07:21:37;;;;;;;;;;;18.70;60.70;;;;;;5021983;28;1965;-70
2023/05/18 07:24:03;;;;;;;;;;;18.70;60.70;;;;;;5039233;28;1373;-69
2023/05/18 07:26:28;;;;;;;;;;;18.70;60.90;;;;;;5008577;28;1352;-67
2023/05/18 07:28:55;;;;;;;;;;;18.80;60.90;;;;;;5015766;28;1506;-67
2023/05/18 07:31:21;;;;;;;;;;;18.80;61.00;;;;;;5027339;28;1346;-67
2023/05/18 07:33:49;;;;;;;;;;;18.80;61.10;;;;;;5023889;28;1373;-67
2023/05/18 07:36:15;;;;;;;;;;;18.80;61.20;;;;;;5024432;28;1240;-67
2023/05/18 07:38:41;;;;;;;;;;;18.80;61.30;;;;;;5023552;28;813;-68
2023/05/18 07:41:07;;;;;;;;;;;18.80;61.40;;;;;;5024262;28;1906;-67
2023/05/18 07:43:32;;;;;;;;;;;18.80;61.40;;;;;;5023621;28;930;-69
2023/05/18 07:45:58;;;;;;;;;;;18.80;61.60;;;;;;5038596;28;998;-69
2023/05/18 07:48:23;;;;;;;;;;;18.80;61.70;;;;;;5027509;28;851;-69
2023/05/18 07:50:49;;;;;;;;;;;18.80;61.70;;;;;;5027213;28;1311;-70
2023/05/18 07:53:15;;;;;;;;;;;18.80;61.90;;;;;;5038359;28;914;-69
2023/05/18 07:55:43;;;;;;;;;;;18.80;61.90;;;;;;5036214;28;1274;-70
2023/05/18 07:58:09;;;;;;;;;;;18.80;62.10;;;;;;5039580;28;973;-70
2023/05/18 08:00:35;;;;;;;;;;;18.90;62.30;;;;;;5034728;28;1902;-70
2023/05/18 08:03:00;;;;;;;;;;;18.80;62.30;;;;;;5019409;28;878;-69
2023/05/18 08:05:26;;;;;;;;;;;18.90;62.50;;;;;;5038864;28;844;-69
2023/05/18 08:07:51;;;;;;;;;;;18.90;62.50;;;;;;5034754;28;1725;-69
2023/05/18 08:10:17;;;;;;;;;;;18.90;62.60;;;;;;5038860;28;1432;-69
2023/05/18 08:12:42;;;;;;;;;;;18.80;62.60;;;;;;5036199;28;832;-69
2023/05/18 08:15:08;;;;;;;;;;;18.80;62.60;;;;;;5037712;28;859;-69
2023/05/18 08:17:33;;;;;;;;;;;18.90;62.80;;;;;;5039585;28;843;-69
2023/05/18 08:19:59;;;;;;;;;;;18.90;62.90;;;;;;5036604;28;923;-70
2023/05/18 08:22:24;;;;;;;;;;;18.90;62.90;;;;;;5034819;28;1910;-69
2023/05/18 08:24:50;;;;;;;;;;;18.90;63.00;;;;;;5035487;28;876;-69
2023/05/18 08:27:16;;;;;;;;;;;18.90;63.00;;;;;;5036807;28;895;-70
2023/05/18 08:29:41;;;;;;;;;;;18.80;63.10;;;;;;5039290;28;808;-69
2023/05/18 08:32:07;;;;;;;;;;;18.90;63.10;;;;;;5042846;28;1268;-70
2023/05/18 08:34:33;;;;;;;;;;;18.80;63.20;;;;;;5024757;28;1508;-70
2023/05/18 08:36:59;;;;;;;;;;;18.80;63.20;;;;;;5038778;28;1367;-69
2023/05/18 08:39:24;;;;;;;;;;;18.80;63.30;;;;;;5041970;28;841;-69
2023/05/18 08:42:03;;;;;;;;;;;18.80;63.50;;;;;;5041164;28;1969;-69
2023/05/18 08:44:39;;;;;;;;;;;18.90;63.90;;;;;;5025794;28;1091;-69
2023/05/18 08:47:07;;;;;;;;;;;18.80;63.90;;;;;;5024238;28;1014;-69
2023/05/18 08:49:32;;;;;;;;;;;18.90;64.10;;;;;;5027379;28;2134;-69
2023/05/18 08:51:59;;;;;;;;;;;18.90;64.10;;;;;;5026763;28;1395;-69
2023/05/18 08:54:25;;;;;;;;;;;18.90;64.20;;;;;;5041883;28;1974;-69
2023/05/18 08:56:50;;;;;;;;;;;18.90;64.20;;;;;;5043531;28;1375;-70
2023/05/18 08:59:21;;;;;;;;;;;18.90;64.30;;;;;;5041121;28;2192;-69
2023/05/18 09:01:47;;;;;;;;;;;18.90;64.20;;;;;;5042205;28;1890;-70
2023/05/18 09:04:12;;;;;;;;;;;18.90;64.30;;;;;;5027407;28;1247;-70
2023/05/18 09:06:38;;;;;;;;;;;18.90;64.40;;;;;;5028956;28;947;-70
2023/05/18 09:09:04;;;;;;;;;;;18.90;64.20;;;;;;5042431;28;1014;-70
2023/05/18 09:11:30;;;;;;;;;;;18.90;64.30;;;;;;5040698;28;1950;-70
2023/05/18 09:13:55;;;;;;;;;;;18.90;64.30;;;;;;5023898;28;1411;-70
2023/05/18 09:16:21;;;;;;;;;;;19.00;64.40;;;;;;5040961;28;1514;-70
2023/05/18 09:18:46;;;;;;;;;;;18.90;65.30;;;;;;5042844;28;903;-70
2023/05/18 09:21:12;;;;;;;;;;;19.00;64.70;;;;;;5040151;28;1918;-70
2023/05/18 09:23:38;;;;;;;;;;;18.90;64.70;;;;;;5015534;28;864;-70
2023/05/18 09:26:03;;;;;;;;;;;18.90;64.80;;;;;;5028209;28;837;-70
2023/05/18 09:28:31;;;;;;;;;;;18.90;64.70;;;;;;5039104;28;1599;-70
2023/05/18 09:30:56;;;;;;;;;;;19.00;64.70;;;;;;5027105;28;1384;-70
2023/05/18 09:33:24;;;;;;;;;;;19.00;64.70;;;;;;5041410;28;1679;-71
2023/05/18 09:35:50;;;;;;;;;;;19.00;64.70;;;;;;5023804;28;1332;-70
2023/05/18 09:38:20;;;;;;;;;;;19.00;64.60;;;;;;5024670;28;1341;-70
2023/05/18 09:40:47;;;;;;;;;;;19.00;64.70;;;;;;5038604;28;1902;-70
2023/05/18 09:43:13;;;;;;;;;;;19.00;64.70;;;;;;5024086;28;914;-71
2023/05/18 09:45:45;;;;;;;;;;;19.00;64.70;;;;;;5042845;28;860;-70
2023/05/18 09:48:10;;;;;;;;;;;19.00;64.70;;;;;;5032268;28;807;-70
2023/05/18 09:50:38;;;;;;;;;;;19.00;64.70;;;;;;5039643;28;1274;-70
2023/05/18 09:53:07;;;;;;;;;;;19.00;64.80;;;;;;5043369;28;891;-70
2023/05/18 09:55:35;;;;;;;;;;;19.00;64.70;;;;;;5031851;28;891;-70
2023/05/18 09:58:02;;;;;;;;;;;19.00;64.80;;;;;;5023699;28;836;-70
2023/05/18 10:00:27;;;;;;;;;;;19.00;65.40;;;;;;5040364;28;1557;-69
2023/05/18 10:02:53;;;;;;;;;;;19.00;65.40;;;;;;5041400;28;1949;-70
2023/05/18 10:05:21;;;;;;;;;;;19.00;65.40;;;;;;5039091;28;836;-70
2023/05/18 10:07:47;;;;;;;;;;;19.00;65.30;;;;;;5036942;28;805;-70
2023/05/18 10:10:15;;;;;;;;;;;19.00;65.40;;;;;;5024052;28;2299;-70
2023/05/18 10:12:41;;;;;;;;;;;19.00;65.40;;;;;;5038342;28;1337;-70
2023/05/18 10:15:10;;;;;;;;;;;19.00;65.40;;;;;;5039265;28;1360;-70
2023/05/18 10:17:36;;;;;;;;;;;19.00;65.40;;;;;;5025085;28;1466;-70
2023/05/18 10:20:02;;;;;;;;;;;19.00;65.50;;;;;;5024478;28;840;-70
2023/05/18 10:22:27;;;;;;;;;;;18.90;65.40;;;;;;5016145;28;1902;-70
2023/05/18 10:24:53;;;;;;;;;;;19.00;65.50;;;;;;5023999;28;829;-70
2023/05/18 10:27:20;;;;;;;;;;;19.00;65.60;;;;;;5025704;28;850;-70
2023/05/18 10:29:45;;;;;;;;;;;19.00;65.60;;;;;;5027369;28;1543;-70
2023/05/18 10:32:11;;;;;;;;;;;19.00;65.60;;;;;;5038378;28;1283;-70
2023/05/18 10:34:36;;;;;;;;;;;19.00;65.80;;;;;;5025287;28;1648;-70
2023/05/18 10:37:03;;;;;;;;;;;19.00;65.80;;;;;;5037367;28;867;-70
2023/05/18 10:39:28;;;;;;;;;;;19.00;65.70;;;;;;5026296;28;1211;-70
2023/05/18 10:41:55;;;;;;;;;;;19.00;65.70;;;;;;5026666;28;1899;-70
2023/05/18 10:44:20;;;;;;;;;;;19.00;65.70;;;;;;5038101;28;894;-70
2023/05/18 10:46:46;;;;;;;;;;;19.00;65.80;;;;;;5022507;28;900;-70
2023/05/18 10:49:13;;;;;;;;;;;19.00;65.70;;;;;;5025490;28;839;-70
2023/05/18 10:51:46;;;;;;;;;;;18.90;65.70;;;;;;5037332;28;1339;-70
2023/05/18 10:54:12;;;;;;;;;;;18.90;65.70;;;;;;5023900;28;844;-70
2023/05/18 10:56:42;;;;;;;;;;;18.90;65.60;;;;;;5024418;28;826;-70
2023/05/18 10:59:07;;;;;;;;;;;19.00;65.80;;;;;;5024716;28;903;-71
2023/05/18 11:01:33;;;;;;;;;;;19.00;65.80;;;;;;5040897;28;1962;-70
2023/05/18 11:04:05;;;;;;;;;;;19.00;65.80;;;;;;5026065;28;935;-70
2023/05/18 11:06:32;;;;;;;;;;;18.90;65.90;;;;;;5039668;28;895;-70
2023/05/18 11:08:57;;;;;;;;;;;18.90;66.00;;;;;;5043463;28;839;-70
2023/05/18 11:11:25;;;;;;;;;;;18.90;66.00;;;;;;5038785;28;1225;-70
2023/05/18 11:13:50;;;;;;;;;;;18.90;66.10;;;;;;5035312;28;907;-70
2023/05/18 11:16:17;;;;;;;;;;;18.90;66.20;;;;;;5036082;28;868;-69
2023/05/18 11:18:44;;;;;;;;;;;18.90;66.20;;;;;;5036504;28;1198;-70
2023/05/18 11:21:40;;;;;;;;;;;18.90;66.40;;;;;;5025450;28;2082;-70
2023/05/18 11:24:22;;;;;;;;;;;18.90;66.30;;;;;;5025917;28;1421;-70
2023/05/18 11:26:48;;;;;;;;;;;18.90;66.20;;;;;;5028569;28;4069;-70
2023/05/18 11:29:29;;;;;;;;;;;18.90;66.20;;;;;;5021088;28;855;-70
2023/05/18 11:31:54;;;;;;;;;;;19.00;66.30;;;;;;5031112;28;1303;-71
2023/05/18 11:34:38;;;;;;;;;;;19.00;66.40;;;;;;5038192;28;1137;-70
2023/05/18 11:37:05;;;;;;;;;;;18.90;66.40;;;;;;5038919;28;1240;-69
2023/05/18 11:39:31;;;;;;;;;;;19.00;66.40;;;;;;5037027;28;871;-70
2023/05/18 11:41:59;;;;;;;;;;;19.00;66.30;;;;;;5039097;28;1987;-69
2023/05/18 11:44:26;;;;;;;;;;;19.00;66.50;;;;;;5036284;28;883;-69
2023/05/18 11:46:52;;;;;;;;;;;19.00;66.40;;;;;;5019602;28;855;-70
2023/05/18 11:49:22;;;;;;;;;;;19.00;66.40;;;;;;5039250;28;914;-69
2023/05/18 11:51:54;;;;;;;;;;;19.00;66.30;;;;;;5022568;28;1370;-69
2023/05/18 11:54:23;;;;;;;;;;;19.00;66.20;;;;;;5038080;28;894;-69
2023/05/18 11:56:50;;;;;;;;;;;19.00;66.30;;;;;;5035972;28;811;-69
2023/05/18 11:59:15;;;;;;;;;;;19.00;66.30;;;;;;5037661;28;857;-69
2023/05/18 12:01:41;;;;;;;;;;;19.00;66.30;;;;;;5039402;28;1964;-70
2023/05/18 12:04:06;;;;;;;;;;;19.00;67.00;;;;;;5021268;28;890;-71
2023/05/18 12:06:32;;;;;;;;;;;19.00;66.80;;;;;;5027861;28;930;-70
2023/05/18 12:08:57;;;;;;;;;;;19.00;65.40;;;;;;5042732;28;911;-71
2023/05/18 12:11:23;;;;;;;;;;;19.00;63.80;;;;;;5042547;28;1272;-71
2023/05/18 12:13:50;;;;;;;;;;;18.90;61.70;;;;;;5043089;28;815;-70
2023/05/18 12:16:16;;;;;;;;;;;18.90;61.20;;;;;;5045191;28;1911;-70
2023/05/18 12:18:47;;;;;;;;;;;18.90;60.10;;;;;;5036592;28;1393;-69
2023/05/18 12:21:12;;;;;;;;;;;18.80;59.80;;;;;;5036501;28;1902;-70
2023/05/18 12:23:38;;;;;;;;;;;18.80;58.80;;;;;;5036949;28;935;-70
2023/05/18 12:26:03;;;;;;;;;;;18.80;58.50;;;;;;5032434;28;1266;-70
2023/05/18 12:28:29;;;;;;;;;;;18.80;58.30;;;;;;5025601;28;859;-71
2023/05/18 12:30:55;;;;;;;;;;;18.80;58.50;;;;;;5040298;28;1955;-70
2023/05/18 12:33:20;;;;;;;;;;;18.70;58.60;;;;;;5040972;28;1295;-70
2023/05/18 12:35:46;;;;;;;;;;;18.70;58.60;;;;;;5034369;28;1367;-69
2023/05/18 12:38:11;;;;;;;;;;;18.70;58.50;;;;;;5041447;28;1242;-70
2023/05/18 12:40:47;;;;;;;;;;;18.70;58.00;;;;;;5041674;28;2110;-71
2023/05/18 12:43:13;;;;;;;;;;;18.70;57.60;;;;;;5032452;28;1349;-70
2023/05/18 12:45:39;;;;;;;;;;;18.70;57.50;;;;;;5029973;28;1545;-70
2023/05/18 12:48:08;;;;;;;;;;;18.70;57.10;;;;;;5018324;28;894;-70
2023/05/18 12:50:35;;;;;;;;;;;18.70;56.80;;;;;;5027843;28;1267;-71
2023/05/18 12:53:01;;;;;;;;;;;18.70;56.90;;;;;;5041202;28;851;-71
2023/05/18 12:55:27;;;;;;;;;;;18.70;56.90;;;;;;5024369;28;920;-70
2023/05/18 12:58:06;;;;;;;;;;;18.70;56.30;;;;;;5024023;28;1567;-70
2023/05/18 13:00:35;;;;;;;;;;;18.70;56.70;;;;;;5027243;28;1256;-70
2023/05/18 13:03:04;;;;;;;;;;;18.60;56.60;;;;;;5038237;28;1957;-71
2023/05/18 13:05:30;;;;;;;;;;;18.70;56.80;;;;;;5024816;28;828;-70
2023/05/18 13:07:55;;;;;;;;;;;18.60;56.40;;;;;;5041343;28;841;-69
2023/05/18 13:10:20;;;;;;;;;;;18.60;56.60;;;;;;5039649;28;1264;-71
2023/05/18 13:12:47;;;;;;;;;;;18.60;56.40;;;;;;5029368;28;1402;-70
2023/05/18 13:15:19;;;;;;;;;;;18.60;55.80;;;;;;5023860;28;843;-70
2023/05/18 13:17:58;;;;;;;;;;;18.60;55.60;;;;;;5023721;28;999;-71
2023/05/18 13:20:28;;;;;;;;;;;18.60;55.50;;;;;;5039909;28;1315;-71
2023/05/18 13:22:58;;;;;;;;;;;18.60;55.80;;;;;;5025640;28;1898;-70
2023/05/18 13:25:24;;;;;;;;;;;18.60;55.80;;;;;;5044647;28;847;-70
2023/05/18 13:27:50;;;;;;;;;;;18.60;55.10;;;;;;5037081;28;900;-71
2023/05/18 13:30:15;;;;;;;;;;;18.60;55.00;;;;;;5041075;28;1343;-70
2023/05/18 13:32:41;;;;;;;;;;;18.60;55.10;;;;;;5038309;28;931;-71
2023/05/18 13:35:06;;;;;;;;;;;18.60;55.40;;;;;;5042048;28;1390;-69
2023/05/18 13:37:32;;;;;;;;;;;18.60;55.30;;;;;;5043055;28;1569;-69
2023/05/18 13:39:57;;;;;;;;;;;18.60;54.10;;;;;;5042346;28;870;-69
2023/05/18 13:42:23;;;;;;;;;;;18.60;54.40;;;;;;5039930;28;1905;-70
2023/05/18 13:44:48;;;;;;;;;;;18.60;54.50;;;;;;5038315;28;855;-69
2023/05/18 13:47:14;;;;;;;;;;;18.60;55.20;;;;;;5039435;28;857;-70
2023/05/18 13:49:39;;;;;;;;;;;18.60;54.30;;;;;;5043577;28;858;-69
2023/05/18 13:52:05;;;;;;;;;;;18.60;54.40;;;;;;5042400;28;1347;-69
2023/05/18 13:54:30;;;;;;;;;;;18.60;53.90;;;;;;5041521;28;869;-70
2023/05/18 13:56:56;;;;;;;;;;;18.60;53.50;;;;;;5025745;28;1397;-69
2023/05/18 13:59:22;;;;;;;;;;;18.60;53.30;;;;;;5041632;28;1335;-70
2023/05/18 14:01:48;;;;;;;;;;;18.60;53.70;;;;;;5032113;28;1906;-71
2023/05/18 14:04:13;;;;;;;;;;;18.60;53.80;;;;;;5039901;28;1409;-70
2023/05/18 14:06:39;;;;;;;;;;;18.60;53.80;;;;;;5041559;28;1411;-70
2023/05/18 14:09:05;;;;;;;;;;;18.60;53.90;;;;;;5036175;28;871;-71
2023/05/18 14:11:33;;;;;;;;;;;18.60;54.00;;;;;;5040745;28;1268;-70
2023/05/18 14:13:59;;;;;;;;;;;18.60;54.00;;;;;;5040187;28;824;-73
2023/05/18 14:16:24;;;;;;;;;;;18.60;54.40;;;;;;5041140;28;900;-70
2023/05/18 14:18:50;;;;;;;;;;;18.60;54.30;;;;;;5040136;28;899;-71
2023/05/18 14:21:15;;;;;;;;;;;18.60;53.90;;;;;;5040663;28;1910;-71
2023/05/18 14:23:40;;;;;;;;;;;18.60;53.30;;;;;;5037166;28;939;-71
2023/05/18 14:26:06;;;;;;;;;;;18.50;53.10;;;;;;5040288;28;796;-71
2023/05/18 14:28:31;;;;;;;;;;;18.60;53.10;;;;;;5034608;28;816;-71
2023/05/18 14:30:58;;;;;;;;;;;18.50;53.50;;;;;;5042002;28;1264;-70
2023/05/18 14:33:23;;;;;;;;;;;18.50;53.10;;;;;;5037725;28;1381;-71